No particular awareness of the weather is required.    There are no Weather-warnings


Nieuwrode (Holsbeek) more information Nieuwrode (Holsbeek)


Thunder radar more information blitzortung!


Rain radar more information rain snow radar



Weather Underground History page Text

Daily Summary for February 25, 2018 Units:  Metric    English   Both
« Previous Day
Next Day »
Daily Weekly Monthly Yearly Custom
  Current: High: Low: Average:
Temperature: 1 °C -17.8 °C -5.4 °C -2.6 °C
Dew Point: -3.9 °C -17.8 °C -7.2 °C -4.8 °C
Humidity: 70 % Humidity % 70 % 85 %
Wind Speed: 24 km/h 0 km/h 9.7 km/h 21.4 km/h
Wind Gust: 33.3 km/h 0 km/h - -
Wind:SW - - WSW
Pressure: 1008.4 hPa 0 hPa 996.8 hPa -
Precipitation: 0 mm      
Historical Graphs
 
 
Tabular Data for February 25, 2018
Time Temperature Dew Point Pressure Wind Wind Speed Wind Gust Humidity Rainfall Rate (Hourly)
-17.8 °C -17.8 °C 0 hPa Calm     Humidity % 0 mm
00:02 1.3 °C 1.1 °C 996.8 hPa SW 17.7 km/h 24.1 km/h 98 % 0.25 mm
00:07 1.3 °C 1.1 °C 997.2 hPa WSW 11.7 km/h 15.4 km/h 98 % 0.25 mm
00:12 1.3 °C 1 °C 997.2 hPa SW 12.4 km/h 13.5 km/h 98 % 0 mm
00:17 1.2 °C 0.9 °C 997.2 hPa SW 21.6 km/h 21.6 km/h 98 % 0 mm
00:22 1.2 °C 0.8 °C 997.2 hPa South 15.3 km/h 20.4 km/h 97 % 0 mm
00:27 1.2 °C 0.7 °C 997.2 hPa SW 17.5 km/h 18.5 km/h 97 % 0 mm
00:32 1.1 °C 0.7 °C 997.2 hPa WSW 11.9 km/h 20.4 km/h 97 % 0 mm
00:37 1.1 °C 0.7 °C 997.5 hPa West 12.7 km/h 15.4 km/h 97 % 0 mm
00:42 1.1 °C 0.6 °C 997.5 hPa West 13 km/h 16.7 km/h 97 % 0 mm
00:47 1.1 °C 0.6 °C 997.5 hPa WNW 10 km/h 11.1 km/h 97 % 0 mm
00:53 1.1 °C 0.5 °C 997.2 hPa SW 21.1 km/h 37 km/h 96 % 0 mm
00:58 1.2 °C 0.4 °C 997.5 hPa SSW 17.5 km/h 23.2 km/h 95 % 0 mm
01:03 1.2 °C 0.3 °C 997.5 hPa West 22.5 km/h 33.3 km/h 94 % 0 mm
01:08 1.1 °C 0.2 °C 997.9 hPa SSW 22.2 km/h 30.9 km/h 94 % 0 mm
01:13 0.9 °C -0.1 °C 997.9 hPa West 28.3 km/h 35.2 km/h 93 % 0 mm
01:18 0.9 °C -0.3 °C 997.5 hPa West 20.4 km/h 24.1 km/h 92 % 0 mm
01:23 0.8 °C -0.4 °C 997.9 hPa WSW 25.3 km/h 27 km/h 92 % 0 mm
01:28 0.7 °C -0.6 °C 997.9 hPa WNW 25.6 km/h 29.6 km/h 91 % 0 mm
01:33 0.4 °C -0.8 °C 998.2 hPa SW 31.4 km/h 35.2 km/h 91 % 0 mm
01:38 0.2 °C -1.2 °C 998.2 hPa West 35.1 km/h 38.9 km/h 90 % 0 mm
01:43 -0.1 °C -1.7 °C 998.5 hPa West 36.9 km/h 50.2 km/h 89 % 0 mm
01:49 -0.3 °C -2.1 °C 998.5 hPa West 26.6 km/h 26.6 km/h 88 % 0 mm
01:54 -0.5 °C -2.2 °C 998.5 hPa WSW 27.7 km/h 40.7 km/h 88 % 0 mm
01:59 -0.7 °C -2.3 °C 998.9 hPa NW 18.2 km/h 20.4 km/h 89 % 0 mm
02:04 -0.8 °C -2.4 °C 998.9 hPa NNW 25.6 km/h 29.6 km/h 89 % 0 mm
02:09 -1.1 °C -2.8 °C 999.2 hPa West 31.2 km/h 46.3 km/h 88 % 0 mm
02:14 -1.3 °C -3.1 °C 999.2 hPa WSW 33.5 km/h 40.7 km/h 88 % 0 mm
02:19 -1.5 °C -3.2 °C 999.2 hPa WSW 30.6 km/h 33.3 km/h 88 % 0 mm
02:24 -1.7 °C -3.2 °C 999.2 hPa WNW 18.2 km/h 36.7 km/h 89 % 0 mm
02:29 -2.1 °C -3.6 °C 999.2 hPa WSW 29.1 km/h 37 km/h 89 % 0 mm
02:34 -2.2 °C -3.8 °C 999.2 hPa West 19.6 km/h 27.8 km/h 89 % 0 mm
02:40 -2.3 °C -3.9 °C 999.5 hPa NW 23.7 km/h 31.5 km/h 89 % 0 mm
02:45 -2.4 °C -4 °C 999.5 hPa WNW 31.4 km/h 34.8 km/h 89 % 0 mm
02:50 -2.6 °C -4.3 °C 999.5 hPa NW 28.2 km/h 35.2 km/h 88 % 0 mm
02:55 -2.8 °C -4.5 °C 999.5 hPa West 34.1 km/h 50.2 km/h 88 % 0 mm
03:00 -3 °C -4.7 °C 999.5 hPa WSW 22.5 km/h 27.8 km/h 88 % 0 mm
03:05 -3.2 °C -4.7 °C 999.9 hPa WSW 25.1 km/h 33.3 km/h 89 % 0 mm
03:10 -3.3 °C -4.9 °C 999.9 hPa WNW 30.4 km/h 40.7 km/h 89 % 0 mm
03:15 -3.6 °C -5.2 °C 1000.2 hPa West 35.1 km/h 42.6 km/h 89 % 0 mm
03:20 -3.8 °C -5.5 °C 1000.6 hPa WNW 38.9 km/h 50.2 km/h 88 % 0 mm
03:25 -3.8 °C -5.5 °C 1000.6 hPa WSW 33.3 km/h 33.3 km/h 88 % 0 mm
03:26 -3.8 °C -5.5 °C 1000.6 hPa WSW 36.2 km/h 38.9 km/h 88 % 0 mm
03:31 -3.9 °C -5.8 °C 1000.9 hPa West 32.2 km/h 51.8 km/h 87 % 0 mm
03:36 -4 °C -5.8 °C 1000.9 hPa WNW 27.7 km/h 38.9 km/h 87 % 0 mm
03:41 -4 °C -5.7 °C 1000.9 hPa WSW 22 km/h 25.1 km/h 88 % 0 mm
03:46 -4.1 °C -5.9 °C 1000.9 hPa SW 23.8 km/h 33.3 km/h 87 % 0 mm
03:51 -4.1 °C -5.8 °C 1000.9 hPa SW 24.5 km/h 38.9 km/h 88 % 0 mm
03:57 -4.1 °C -5.8 °C 1000.9 hPa SW 20.4 km/h 20.4 km/h 88 % 0 mm
04:02 -4.1 °C -5.8 °C 1001.2 hPa SW 21.1 km/h 21.1 km/h 88 % 0 mm
04:07 -4.1 °C -5.8 °C 1001.2 hPa West 16.1 km/h 20.4 km/h 88 % 0 mm
04:12 -4.1 °C -5.9 °C 1001.6 hPa SW 21.4 km/h 25.9 km/h 87 % 0 mm
04:17 -4.1 °C -5.9 °C 1001.6 hPa West 26.4 km/h 35.2 km/h 87 % 0 mm
04:22 -4.1 °C -5.9 °C 1001.6 hPa WSW 24 km/h 33.3 km/h 87 % 0 mm
04:27 -4.1 °C -5.9 °C 1001.6 hPa WSW 18.3 km/h 25.9 km/h 87 % 0 mm
04:32 -4.1 °C -5.8 °C 1001.9 hPa WNW 24.3 km/h 33.3 km/h 88 % 0 mm
04:37 -4.1 °C -5.8 °C 1001.9 hPa SSW 14 km/h 18.5 km/h 88 % 0 mm
04:42 -4.1 °C -5.8 °C 1001.9 hPa WSW 20.9 km/h 25.9 km/h 88 % 0 mm
04:47 -4.1 °C -5.8 °C 1001.9 hPa WSW 20.8 km/h 33.3 km/h 88 % 0 mm
04:52 -4.1 °C -5.9 °C 1002.3 hPa SW 27 km/h 29 km/h 87 % 0 mm
04:57 -4 °C -5.8 °C 1002.3 hPa West 14.6 km/h 18.5 km/h 87 % 0 mm
05:03 -4.1 °C -5.9 °C 1002.6 hPa WSW 20.3 km/h 29 km/h 87 % 0 mm
05:08 -4.1 °C -5.9 °C 1002.3 hPa WNW 28.6 km/h 35.2 km/h 87 % 0 mm
05:13 -4.1 °C -5.9 °C 1002.6 hPa WNW 27 km/h 40.7 km/h 87 % 0 mm
05:18 -4.1 °C -5.9 °C 1002.6 hPa WNW 27.5 km/h 37 km/h 87 % 0 mm
05:23 -4.1 °C -6.1 °C 1002.6 hPa SW 16.9 km/h 25.9 km/h 86 % 0 mm
05:28 -4.1 °C -5.9 °C 1002.9 hPa SW 13.4 km/h 20.4 km/h 87 % 0 mm
05:33 -4.1 °C -5.9 °C 1002.9 hPa SW 23.3 km/h 27.8 km/h 87 % 0 mm
05:38 -4.2 °C -6.2 °C 1002.9 hPa SW 18.8 km/h 29.6 km/h 86 % 0 mm
05:43 -4.2 °C -6.2 °C 1003.3 hPa SW 15.8 km/h 15.8 km/h 86 % 0 mm
05:49 -4.4 °C -6.4 °C 1003.6 hPa WSW 20.9 km/h 42.6 km/h 86 % 0 mm
05:54 -4.5 °C -6.5 °C 1003.6 hPa WSW 25.4 km/h 27.8 km/h 86 % 0 mm
05:59 -4.7 °C -6.7 °C 1003.6 hPa WNW 21.6 km/h 40.7 km/h 86 % 0 mm
06:04 -4.8 °C -6.8 °C 1003.6 hPa West 27 km/h 37 km/h 86 % 0 mm
06:09 -4.8 °C -6.8 °C 1003.6 hPa WNW 29.5 km/h 35.2 km/h 86 % 0 mm
06:14 -4.9 °C -6.9 °C 1003.6 hPa West 26.6 km/h 35.2 km/h 86 % 0 mm
06:19 -4.9 °C -6.8 °C 1003.6 hPa WSW 24 km/h 29.6 km/h 87 % 0 mm
06:24 -4.9 °C -6.8 °C 1003.9 hPa WNW 27.7 km/h 29 km/h 87 % 0 mm
06:29 -4.9 °C -6.8 °C 1003.9 hPa SW 19 km/h 24.1 km/h 87 % 0 mm
06:34 -5 °C -6.8 °C 1003.9 hPa SW 16.4 km/h 21.2 km/h 87 % 0 mm
06:39 -5.1 °C -7.1 °C 1003.9 hPa WSW 19.5 km/h 25.9 km/h 86 % 0 mm
06:44 -5.1 °C -6.9 °C 1004.3 hPa SW 21.6 km/h 25.9 km/h 87 % 0 mm
06:49 -5.2 °C -7.2 °C 1004.3 hPa West 23.2 km/h 29.6 km/h 86 % 0 mm
06:54 -5.2 °C -7.2 °C 1004.3 hPa West 25.4 km/h 25.4 km/h 86 % 0 mm
06:59 -5.3 °C -7.1 °C 1004.6 hPa SW 17.4 km/h 25.9 km/h 87 % 0 mm
07:05 -5.3 °C -7.2 °C 1005 hPa WSW 24.1 km/h 27.8 km/h 87 % 0 mm
07:10 -5.3 °C -7.2 °C 1004.6 hPa WNW 13.2 km/h 24.1 km/h 87 % 0 mm
07:15 -5.3 °C -7.2 °C 1004.6 hPa WSW 16.4 km/h 24.1 km/h 87 % 0 mm
07:20 -5.4 °C -7.2 °C 1005 hPa SSW 16.6 km/h 23.2 km/h 87 % 0 mm
07:25 -5.3 °C -7.2 °C 1005 hPa SW 19 km/h 20.4 km/h 87 % 0 mm
07:30 -5.3 °C -7.2 °C 1005.3 hPa WSW 10.9 km/h 15.4 km/h 87 % 0 mm
07:35 -5.3 °C -7.1 °C 1005.3 hPa WSW 20.8 km/h 25.9 km/h 87 % 0 mm
07:40 -5.2 °C -7.1 °C 1005.3 hPa SW 22 km/h 25.1 km/h 87 % 0 mm
07:45 -5.2 °C -7 °C 1005.6 hPa WSW 15 km/h 23.2 km/h 87 % 0 mm
07:50 -5.2 °C -7 °C 1005.6 hPa WSW 19.3 km/h 27.8 km/h 87 % 0 mm
07:55 -5.2 °C -6.8 °C 1005.6 hPa WSW 13.8 km/h 13.8 km/h 88 % 0 mm
08:01 -5.2 °C -6.8 °C 1005.6 hPa WSW 19.8 km/h 25.9 km/h 88 % 0 mm
08:06 -5.2 °C -7 °C 1005.6 hPa WSW 16.7 km/h 24.1 km/h 87 % 0 mm
08:11 -5.1 °C -6.8 °C 1006 hPa SW 28.2 km/h 37 km/h 88 % 0 mm
08:16 -5 °C -6.7 °C 1006 hPa SW 19.6 km/h 24.1 km/h 88 % 0 mm
08:21 -5 °C -6.7 °C 1006.3 hPa SW 14.8 km/h 23.2 km/h 88 % 0 mm
08:26 -5 °C -6.7 °C 1006.3 hPa SW 28.2 km/h 28.2 km/h 88 % 0 mm
08:31 -4.9 °C -6.6 °C 1006.3 hPa WNW 16.4 km/h 18.5 km/h 88 % 0 mm
08:36 -4.8 °C -6.4 °C 1006.3 hPa WSW 24.6 km/h 31.5 km/h 88 % 0 mm
08:41 -4.8 °C -6.4 °C 1006.3 hPa WSW 20.3 km/h 29 km/h 88 % 0 mm
08:46 -4.6 °C -6.3 °C 1006.3 hPa WSW 23.2 km/h 25.9 km/h 88 % 0 mm
08:49 -4.6 °C -6.4 °C 1006.3 hPa West 20.1 km/h 20.4 km/h 87 % 0 mm
08:54 -4.5 °C -6.3 °C 1006.3 hPa West 16.4 km/h 20.4 km/h 87 % 0 mm
08:59 -4.3 °C -6.2 °C 1006.3 hPa West 14.6 km/h 25.9 km/h 87 % 0 mm
09:05 -4.1 °C -5.9 °C 1006.3 hPa WSW 18.2 km/h 24.1 km/h 87 % 0 mm
09:10 -4 °C -5.8 °C 1006.7 hPa WSW 17.2 km/h 20.4 km/h 87 % 0 mm
09:15 -4 °C -6 °C 1006.7 hPa SW 26.1 km/h 29.6 km/h 86 % 0 mm
09:20 -4 °C -6 °C 1006.7 hPa SSW 17.4 km/h 23.2 km/h 86 % 0 mm
09:25 -3.8 °C -5.8 °C 1006.7 hPa SW 20.3 km/h 29 km/h 86 % 0 mm
09:30 -3.7 °C -5.7 °C 1007 hPa WSW 15.8 km/h 20.4 km/h 86 % 0 mm
09:35 -3.6 °C -5.6 °C 1007 hPa SW 17.5 km/h 23.2 km/h 86 % 0 mm
09:40 -3.6 °C -5.8 °C 1007 hPa SW 22.9 km/h 27.8 km/h 85 % 0 mm
09:45 -3.5 °C -5.7 °C 1006.7 hPa WSW 20.3 km/h 23.2 km/h 85 % 0 mm
09:50 -3.4 °C -5.7 °C 1007 hPa SSW 23.7 km/h 25.9 km/h 84 % 0 mm
09:55 -3.3 °C -5.6 °C 1007 hPa SW 18.2 km/h 23.2 km/h 84 % 0 mm
10:01 -3 °C -5.3 °C 1007 hPa West 11.4 km/h 13.5 km/h 84 % 0 mm
10:06 -3.1 °C -5.7 °C 1007.3 hPa WSW 27.7 km/h 33.3 km/h 82 % 0 mm
10:11 -3.1 °C -5.7 °C 1007.3 hPa SSW 29.3 km/h 31.5 km/h 82 % 0 mm
10:16 -3 °C -5.8 °C 1007.3 hPa SW 24.8 km/h 29.6 km/h 81 % 0 mm
10:21 -2.8 °C -5.4 °C 1007.3 hPa SW 21.7 km/h 25.1 km/h 82 % 0 mm
10:26 -2.6 °C -5.4 °C 1007.3 hPa SSW 24.3 km/h 30.9 km/h 81 % 0 mm
10:31 -2.5 °C -5.5 °C 1007.3 hPa SW 22.7 km/h 24.1 km/h 80 % 0 mm
10:36 -2.1 °C -4.9 °C 1007.3 hPa South 18.3 km/h 18.3 km/h 81 % 0 mm
10:41 -2.1 °C -5.2 °C 1007.7 hPa West 15.8 km/h 15.8 km/h 79 % 0 mm
10:47 -1.9 °C -5.1 °C 1007.3 hPa WSW 20.9 km/h 25.7 km/h 79 % 0 mm
10:52 -1.8 °C -5.2 °C 1007.7 hPa WSW 14.5 km/h 22.5 km/h 78 % 0 mm
10:57 -1.7 °C -5.1 °C 1007.7 hPa WSW 23 km/h 23 km/h 78 % 0 mm
11:02 -1.5 °C -4.8 °C 1007.7 hPa West 13.4 km/h 21.2 km/h 78 % 0 mm
11:07 -1.4 °C -4.9 °C 1007.7 hPa SW 24.1 km/h 29 km/h 77 % 0 mm
11:12 -1.3 °C -4.8 °C 1008 hPa WSW 21.7 km/h 27.8 km/h 77 % 0 mm
11:17 -1.1 °C -4.7 °C 1007.7 hPa SW 22.5 km/h 24.1 km/h 77 % 0 mm
11:22 -0.9 °C -4.6 °C 1008 hPa WSW 15.8 km/h 20.4 km/h 76 % 0 mm
11:27 -0.7 °C -4.4 °C 1007.7 hPa WSW 16.1 km/h 27.4 km/h 76 % 0 mm
11:32 -0.9 °C -4.7 °C 1007.7 hPa SW 22.5 km/h 37 km/h 76 % 0 mm
11:37 -0.9 °C -4.6 °C 1007.7 hPa SW 22.5 km/h 37 km/h 76 % 0 mm
11:42 -0.7 °C -4.6 °C 1007.7 hPa SW 9.7 km/h 27.4 km/h 75 % 0 mm
11:47 -0.3 °C -4 °C 1008 hPa WSW 12.9 km/h 20.9 km/h 76 % 0 mm
11:52 -0.4 °C -4.4 °C 1008 hPa WSW 22.5 km/h 32.2 km/h 74 % 0 mm
11:57 -0.3 °C -4.3 °C 1008 hPa WSW 22.5 km/h 33.8 km/h 74 % 0 mm
12:02 -0.3 °C -4.6 °C 1008 hPa WSW 23.5 km/h 29.6 km/h 73 % 0 mm
12:07 -0.3 °C -4.6 °C 1008 hPa WSW 15.4 km/h 25.9 km/h 73 % 0 mm
12:12 -0.1 °C -4.3 °C 1008 hPa WSW 16.9 km/h 24.1 km/h 73 % 0 mm
12:17 0.1 °C -4.1 °C 1008 hPa SW 23.7 km/h 27.8 km/h 74 % 0 mm
12:22 0.2 °C -4.1 °C 1008 hPa WNW 14.2 km/h 21.2 km/h 73 % 0 mm
12:27 0.2 °C -4.2 °C 1008 hPa West 22.2 km/h 31.5 km/h 72 % 0 mm
12:32 0.3 °C -4.1 °C 1008.4 hPa West 11.4 km/h 16.7 km/h 72 % 0 mm
12:37 0.3 °C -4.4 °C 1008 hPa SW 15.3 km/h 25.9 km/h 71 % 0 mm
12:42 0.5 °C -3.9 °C 1008.4 hPa WNW 13.7 km/h 14.8 km/h 72 % 0 mm
12:47 0.5 °C -3.9 °C 1008.4 hPa West 22.5 km/h 25.9 km/h 72 % 0 mm
12:52 0.6 °C -3.7 °C 1008.4 hPa SSW 16.7 km/h 25.9 km/h 73 % 0 mm
12:58 0.6 °C -4.1 °C 1008.4 hPa SSW 25.6 km/h 30.9 km/h 71 % 0 mm
13:03 0.7 °C -3.9 °C 1008.4 hPa SSW 24.3 km/h 33.3 km/h 71 % 0 mm
13:08 0.8 °C -3.8 °C 1008.4 hPa WSW 18.3 km/h 27.8 km/h 71 % 0 mm
13:13 1 °C -3.7 °C 1008.4 hPa WSW 20 km/h 25.9 km/h 71 % 0 mm
13:18 0.8 °C -3.8 °C 1008.4 hPa West 26.4 km/h 40.7 km/h 71 % 0 mm
13:23 1 °C -3.9 °C 1008.4 hPa SW 24 km/h 33.3 km/h 70 % 0 mm
Weerstation Nieuwrode (Holsbeek)
Compliments of Weather Underground - 2.25 mb

Script developed by  Jim McMurry - jmcmurry@mwt.net Adapted for the template by  Wim van der Kuil - Leuven-Template.eu

You find our weather info also at:


Het Weer Aktueel

European Weather Network

Weather Underground

AWEKAS

HAMweather, WeatherForYou, PWS Weather

Equipment we use:


Weather-station
Davis VP2 Plus

Weather-program
Weather Display

Davis VP2 Plus

Weather Display